createdAt,value
2017-01-13T19:58:43.373Z,988.36
2017-01-13T19:59:05.067Z,991.05
2017-01-13T19:59:31.544Z,991.13
2017-01-13T19:59:53.241Z,991.13
2017-01-13T20:00:14.933Z,991.06
2017-01-13T20:00:36.628Z,991.16
2017-01-13T20:01:03.105Z,991.31
2017-01-13T20:01:24.821Z,991.25
2017-01-13T20:01:46.531Z,991.15
2017-01-13T20:02:08.291Z,991.13
2017-01-13T20:02:29.980Z,991.11
2017-01-13T20:02:51.686Z,991.15
2017-01-13T20:03:13.447Z,991.09
2017-01-13T20:03:35.160Z,991.06
2017-01-13T20:03:56.856Z,991.09
2017-01-13T20:04:18.567Z,991.08
2017-01-13T20:04:40.384Z,991.14
2017-01-13T20:05:09.435Z,991.20
2017-01-13T20:05:31.126Z,991.15
2017-01-13T20:05:52.829Z,991.07
2017-01-13T20:06:19.304Z,991.05
2017-01-13T20:06:40.999Z,991.07
2017-01-13T20:07:02.703Z,991.05
2017-01-13T20:07:24.415Z,991.16
2017-01-13T20:07:46.137Z,991.22
2017-01-13T20:08:12.648Z,991.01
2017-01-13T20:08:34.343Z,991.03
2017-01-13T20:08:56.044Z,990.98
2017-01-13T20:10:41.796Z,991.09
2017-01-13T20:11:03.537Z,991.04
2017-01-13T20:11:34.785Z,991.23
2017-01-13T20:12:03.285Z,991.17
2017-01-13T20:12:25.011Z,991.09
2017-01-13T20:12:51.486Z,990.92
2017-01-13T20:13:13.204Z,990.99
2017-01-13T20:14:06.165Z,990.93
2017-01-13T20:14:32.669Z,990.97
2017-01-13T20:14:54.412Z,990.91
2017-01-13T20:15:20.920Z,990.97
2017-01-13T20:15:42.670Z,990.96
2017-01-13T20:16:09.177Z,990.98
2017-01-13T20:16:30.943Z,990.99
2017-01-13T20:16:52.661Z,991.00
2017-01-13T20:17:19.152Z,991.10
2017-01-13T20:17:40.936Z,990.99
2017-01-13T20:18:33.905Z,990.91
2017-01-13T20:19:26.891Z,990.89
2017-01-13T20:20:19.846Z,990.86
2017-01-13T20:21:12.807Z,990.85
2017-01-13T20:21:34.526Z,990.81
2017-01-13T20:22:01.012Z,990.86
2017-01-13T20:22:22.727Z,990.78
2017-01-13T20:22:49.226Z,990.72
2017-01-13T20:23:10.963Z,990.76
2017-01-13T20:24:18.255Z,990.88
2017-01-13T20:24:39.984Z,990.86
2017-01-13T20:25:06.479Z,990.80
2017-01-13T20:25:28.204Z,990.87
2017-01-13T20:25:49.975Z,990.85
2017-01-13T20:26:42.968Z,990.79
2017-01-13T20:27:35.946Z,990.85
2017-01-13T20:28:28.907Z,990.82
2017-01-13T20:29:21.858Z,990.82
2017-01-13T20:30:14.849Z,990.83
2017-01-13T20:31:07.874Z,990.80
2017-01-13T20:31:29.599Z,990.69
2017-01-13T20:32:36.877Z,990.68
2017-01-13T20:32:58.598Z,990.76
2017-01-13T20:33:20.324Z,990.71
2017-01-13T20:34:13.279Z,990.61
2017-01-13T20:34:39.752Z,990.68
2017-01-13T20:35:01.444Z,990.71
2017-01-13T20:35:27.928Z,990.67
2017-01-13T20:35:49.650Z,990.62
2017-01-13T20:36:16.151Z,990.63
2017-01-13T20:36:37.910Z,990.69
2017-01-13T20:36:59.637Z,990.67
2017-01-13T20:38:06.929Z,990.80
2017-01-13T20:38:28.642Z,990.83
2017-01-13T20:39:31.174Z,990.95
2017-01-13T20:39:57.729Z,990.72
2017-01-13T20:40:19.474Z,990.74
2017-01-13T20:40:41.183Z,990.80
2017-01-13T20:41:07.665Z,990.84
2017-01-13T20:41:29.366Z,990.79
2017-01-13T20:42:22.351Z,990.71
2017-01-13T20:42:44.060Z,990.79
2017-01-13T20:43:37.029Z,990.83
2017-01-13T20:44:29.995Z,990.80
2017-01-13T20:44:51.715Z,990.84
2017-01-13T20:45:18.187Z,990.81
2017-01-13T20:45:39.916Z,990.83
2017-01-13T20:46:01.641Z,990.74
2017-01-13T20:46:28.115Z,990.70
2017-01-13T20:46:49.836Z,990.75
2017-01-13T20:47:42.852Z,990.76
2017-01-13T20:48:04.578Z,990.84
2017-01-13T20:48:57.553Z,990.73
2017-01-13T20:49:50.534Z,990.80
2017-01-13T20:50:43.526Z,990.70
2017-01-13T20:51:05.295Z,990.70
2017-01-13T20:51:58.357Z,990.82
2017-01-13T20:52:20.114Z,990.69
2017-01-13T20:54:25.769Z,990.80
2017-01-13T20:54:47.490Z,990.66
2017-01-13T20:55:13.983Z,990.71
2017-01-13T20:55:35.728Z,990.73
2017-01-13T20:56:02.219Z,990.73
2017-01-13T20:56:23.926Z,990.69
2017-01-13T20:57:27.024Z,990.65
2017-01-13T20:57:48.757Z,990.66
2017-01-13T20:58:15.248Z,990.78
2017-01-13T20:58:36.959Z,990.72
2017-01-13T20:59:40.144Z,990.74
2017-01-13T21:00:26.960Z,990.64
2017-01-13T21:00:48.706Z,990.70
2017-01-13T21:01:10.415Z,990.62
2017-01-13T21:02:03.425Z,990.62
2017-01-13T21:02:29.934Z,990.71
2017-01-13T21:02:51.644Z,990.78
2017-01-13T21:03:58.956Z,990.66
2017-01-13T21:04:20.653Z,990.84
2017-01-13T21:05:45.092Z,990.63
2017-01-13T21:06:12.103Z,990.65
2017-01-13T21:06:33.827Z,990.79
2017-01-13T21:06:55.534Z,990.82
2017-01-13T21:07:22.009Z,990.75
2017-01-13T21:07:43.713Z,990.71
2017-01-13T21:08:05.423Z,990.72
2017-01-13T21:08:27.134Z,990.77
2017-01-13T21:08:48.870Z,990.77
2017-01-13T21:09:41.854Z,990.81
2017-01-13T21:10:03.591Z,990.71
2017-01-13T21:10:30.073Z,990.74
2017-01-13T21:10:51.776Z,990.74
2017-01-13T21:11:13.495Z,990.73
2017-01-13T21:11:40.003Z,990.76
2017-01-13T21:12:01.724Z,990.70
2017-01-13T21:12:28.217Z,990.74
2017-01-13T21:12:49.956Z,990.74
2017-01-13T21:14:23.743Z,990.76
2017-01-13T21:15:16.715Z,990.83
2017-01-13T21:16:36.421Z,990.72
2017-01-13T21:17:03.387Z,990.70
2017-01-13T21:17:25.093Z,990.73
2017-01-13T21:17:46.806Z,990.72
2017-01-13T21:18:39.836Z,990.75
2017-01-13T21:19:47.128Z,990.89
2017-01-13T21:20:08.900Z,990.81
2017-01-13T21:21:16.942Z,990.71
2017-01-13T21:21:59.103Z,990.75
2017-01-13T21:22:20.811Z,990.72
2017-01-13T21:23:19.130Z,990.77
2017-01-13T21:23:40.844Z,990.80
2017-01-13T21:24:07.355Z,990.81
2017-01-13T21:24:29.038Z,990.93
2017-01-13T21:25:22.005Z,990.88
2017-01-13T21:25:48.486Z,990.79
2017-01-13T21:26:10.189Z,990.89
2017-01-13T21:26:31.881Z,990.77
2017-01-13T21:26:53.595Z,990.84
2017-01-13T21:27:15.297Z,990.89
2017-01-13T21:27:36.991Z,990.75
2017-01-13T21:28:29.936Z,990.76
2017-01-13T21:28:51.620Z,990.73
2017-01-13T21:29:15.339Z,990.68
2017-01-13T21:29:37.063Z,990.70
2017-01-13T21:30:30.016Z,990.73
2017-01-13T21:30:51.716Z,990.76
2017-01-13T21:31:13.426Z,990.69
2017-01-13T21:31:35.116Z,990.75
2017-01-13T21:31:56.827Z,990.82
2017-01-13T21:32:18.565Z,990.70
2017-01-13T21:33:11.506Z,990.84
2017-01-13T21:33:33.238Z,990.73
2017-01-13T21:33:59.711Z,990.73
2017-01-13T21:34:21.404Z,990.78
2017-01-13T21:34:47.877Z,990.77
2017-01-13T21:35:09.572Z,990.72
2017-01-13T21:35:31.281Z,990.71
2017-01-13T21:35:57.752Z,990.80
2017-01-13T21:36:22.440Z,990.79
2017-01-13T21:36:48.904Z,990.75
2017-01-13T21:37:10.612Z,990.72
2017-01-13T21:37:37.076Z,990.68
2017-01-13T21:37:58.771Z,990.68
2017-01-13T21:38:25.259Z,990.73
2017-01-13T21:38:46.950Z,990.65
2017-01-13T21:39:13.429Z,990.84
2017-01-13T21:39:35.135Z,990.65
2017-01-13T21:39:56.860Z,990.72
2017-01-13T21:40:18.565Z,990.67
2017-01-13T21:40:40.263Z,990.71
2017-01-13T21:41:06.745Z,990.66
2017-01-13T21:41:28.435Z,990.74
2017-01-13T21:41:50.136Z,990.76
2017-01-13T21:42:43.107Z,990.69
2017-01-13T21:43:04.800Z,990.74
2017-01-13T21:43:26.514Z,990.68
2017-01-13T21:43:48.203Z,990.72
2017-01-13T21:44:09.912Z,990.72
2017-01-13T21:44:31.615Z,990.72
2017-01-13T21:44:53.301Z,990.61
2017-01-13T21:46:00.590Z,990.77
2017-01-13T21:46:22.289Z,990.72
2017-01-13T21:46:43.992Z,990.86
2017-01-13T21:47:10.473Z,990.68
2017-01-13T21:47:32.167Z,990.84
2017-01-13T21:47:58.639Z,990.71
2017-01-13T21:48:20.340Z,990.71
2017-01-13T21:48:42.054Z,990.72
2017-01-13T21:49:40.366Z,990.70
2017-01-13T21:50:02.081Z,990.76
2017-01-13T21:50:23.766Z,990.65
2017-01-13T21:50:50.256Z,990.74
2017-01-13T21:51:11.945Z,990.74
2017-01-13T21:51:33.632Z,990.76
2017-01-13T21:51:55.335Z,990.74
2017-01-13T21:52:19.048Z,990.68
2017-01-13T21:52:40.751Z,990.70
2017-01-13T21:53:02.454Z,990.80
2017-01-13T21:53:24.165Z,990.75
2017-01-13T21:53:50.643Z,990.76
2017-01-13T21:54:12.345Z,990.82
2017-01-13T21:54:41.374Z,990.91
2017-01-13T21:55:03.100Z,990.68
2017-01-13T21:55:56.041Z,990.76
2017-01-13T21:56:22.523Z,990.81
2017-01-13T21:56:44.225Z,990.63
2017-01-13T21:57:05.928Z,990.68
2017-01-13T21:57:27.644Z,990.71
2017-01-13T21:57:49.342Z,990.69
2017-01-13T21:58:15.811Z,990.69
2017-01-13T21:58:37.509Z,990.62
2017-01-13T21:58:59.235Z,990.70
2017-01-13T21:59:20.955Z,990.73
2017-01-13T21:59:42.642Z,990.49
2017-01-13T22:00:04.370Z,990.67
2017-01-13T22:00:26.088Z,990.63
2017-01-13T22:00:47.787Z,990.55
2017-01-13T22:01:09.490Z,990.66
2017-01-13T22:01:31.192Z,990.68
2017-01-13T22:01:52.896Z,990.53
2017-01-13T22:02:14.591Z,990.60
2017-01-13T22:02:36.287Z,990.52
2017-01-13T22:02:57.996Z,990.69
2017-01-13T22:03:21.692Z,990.68
2017-01-13T22:03:43.400Z,990.77
2017-01-13T22:04:36.354Z,990.67
2017-01-13T22:04:58.063Z,990.71
2017-01-13T22:05:19.816Z,990.85
2017-01-13T22:05:41.513Z,990.62
2017-01-13T22:06:07.990Z,990.57
2017-01-13T22:06:32.681Z,990.62
2017-01-13T22:06:59.164Z,990.64
2017-01-13T22:07:21.173Z,990.66
2017-01-13T22:07:42.895Z,990.76
2017-01-13T22:08:35.857Z,990.64
2017-01-13T22:08:57.552Z,990.64
2017-01-13T22:09:19.259Z,990.65
2017-01-13T22:09:40.962Z,990.70
2017-01-13T22:10:02.648Z,990.70
2017-01-13T22:10:29.138Z,990.71
2017-01-13T22:10:50.836Z,990.63
2017-01-13T22:11:12.627Z,990.70
2017-01-13T22:11:34.338Z,990.67
2017-01-13T22:11:56.064Z,990.57
2017-01-13T22:12:22.524Z,990.68
2017-01-13T22:12:44.232Z,990.73
2017-01-13T22:13:05.938Z,990.83
2017-01-13T22:13:32.402Z,990.72
2017-01-13T22:13:54.099Z,990.74
2017-01-13T22:14:15.823Z,990.81
2017-01-13T22:14:42.290Z,990.71
2017-01-13T22:15:04.037Z,990.73
2017-01-13T22:15:25.795Z,990.71
2017-01-13T22:15:47.494Z,990.64
2017-01-13T22:16:09.189Z,990.80
2017-01-13T22:16:30.902Z,990.73
2017-01-13T22:16:52.607Z,990.71
2017-01-13T22:17:14.297Z,990.74
2017-01-13T22:17:36.018Z,990.73
2017-01-13T22:18:02.508Z,990.75
2017-01-13T22:18:24.205Z,990.70
2017-01-13T22:19:17.150Z,990.55
2017-01-13T22:19:38.850Z,990.63
2017-01-13T22:20:00.562Z,990.65
2017-01-13T22:20:22.263Z,990.77
2017-01-13T22:20:43.950Z,990.69
2017-01-13T22:21:05.661Z,990.69
2017-01-13T22:21:27.362Z,990.72
2017-01-13T22:21:49.068Z,990.71
2017-01-13T22:22:15.552Z,990.72
2017-01-13T22:22:37.237Z,990.96
2017-01-13T22:23:03.718Z,990.64
2017-01-13T22:23:25.414Z,990.57
2017-01-13T22:24:18.382Z,990.91
2017-01-13T22:24:44.981Z,990.78
2017-01-13T22:25:06.690Z,990.60
2017-01-13T22:25:28.443Z,990.67
2017-01-13T22:25:54.921Z,990.97
2017-01-13T22:26:16.621Z,990.77
2017-01-13T22:26:38.356Z,990.69
2017-01-13T22:27:00.035Z,990.69
2017-01-13T22:27:21.740Z,990.64
2017-01-13T22:27:48.223Z,990.53
2017-01-13T22:28:09.932Z,990.70
2017-01-13T22:28:31.623Z,990.75
2017-01-13T22:29:24.597Z,990.78
2017-01-13T22:30:24.424Z,990.73
2017-01-13T22:30:48.549Z,990.83
2017-01-13T22:31:12.304Z,990.78
2017-01-13T22:32:05.259Z,990.70
2017-01-13T22:32:26.965Z,990.73
2017-01-13T22:32:48.698Z,990.77
2017-01-13T22:33:15.169Z,990.92
2017-01-13T22:33:41.636Z,990.83
2017-01-13T22:34:03.384Z,990.69
2017-01-13T22:35:10.723Z,990.84
2017-01-13T22:35:32.432Z,990.79
2017-01-13T22:35:58.922Z,990.79
2017-01-13T22:36:20.681Z,990.70
2017-01-13T22:37:19.042Z,990.80
2017-01-13T22:37:40.730Z,990.62
2017-01-13T22:38:02.435Z,990.49
2017-01-13T22:38:55.381Z,990.63
2017-01-13T22:39:17.089Z,990.48
2017-01-13T22:39:38.802Z,990.55
2017-01-13T22:40:00.525Z,990.59
2017-01-13T22:40:22.240Z,990.66
2017-01-13T22:40:44.101Z,990.69
2017-01-13T22:41:05.885Z,990.54
2017-01-13T22:41:32.369Z,990.84
2017-01-13T22:41:54.265Z,990.52
2017-01-13T22:42:15.984Z,990.51
2017-01-13T22:42:42.474Z,990.57
2017-01-13T22:43:04.160Z,990.67
2017-01-13T22:44:06.777Z,990.84
2017-01-13T22:44:28.482Z,990.74
2017-01-13T22:44:54.960Z,990.50
2017-01-13T22:45:16.679Z,990.69
2017-01-13T22:46:23.958Z,990.78
2017-01-13T22:46:45.696Z,990.73
2017-01-13T22:47:12.186Z,990.72
2017-01-13T22:47:33.957Z,990.76
2017-01-13T22:48:36.474Z,990.85
2017-01-13T22:49:02.949Z,990.67
2017-01-13T22:49:24.655Z,990.83
2017-01-13T22:49:51.138Z,990.68
2017-01-13T22:50:12.856Z,990.72
2017-01-13T22:51:15.378Z,990.66
2017-01-13T22:51:37.072Z,990.61
2017-01-13T22:51:58.880Z,990.71
2017-01-13T22:53:16.988Z,990.61
2017-01-13T22:53:38.693Z,990.59
2017-01-13T22:54:00.415Z,990.63
2017-01-13T22:54:53.367Z,990.69
2017-01-13T22:55:19.846Z,990.62
2017-01-13T22:55:41.549Z,990.73
2017-01-13T22:56:08.032Z,990.63
2017-01-13T22:56:29.738Z,990.60
2017-01-13T22:56:56.233Z,990.68
2017-01-13T22:57:17.927Z,990.77
2017-01-13T22:57:39.661Z,990.68
2017-01-13T22:58:01.378Z,990.79
2017-01-13T22:58:23.108Z,990.77
2017-01-13T22:58:44.806Z,990.72
2017-01-13T22:59:06.524Z,990.70
2017-01-13T22:59:33.011Z,990.75
2017-01-13T22:59:54.714Z,990.72
2017-01-13T23:00:21.193Z,990.76
2017-01-13T23:00:42.890Z,990.58
2017-01-13T23:01:35.841Z,990.72
2017-01-13T23:01:57.547Z,990.70
2017-01-13T23:02:24.018Z,990.77
2017-01-13T23:02:45.724Z,990.67
2017-01-13T23:03:12.194Z,990.65
2017-01-13T23:03:33.919Z,990.73
2017-01-13T23:03:55.616Z,990.81
2017-01-13T23:04:22.112Z,990.73
2017-01-13T23:04:43.810Z,990.56
2017-01-13T23:05:05.594Z,990.63
2017-01-13T23:05:27.298Z,990.71
2017-01-13T23:05:48.998Z,990.69
2017-01-13T23:06:15.469Z,990.82
2017-01-13T23:06:37.173Z,990.81
2017-01-13T23:06:58.884Z,990.72
2017-01-13T23:07:25.446Z,990.60
2017-01-13T23:07:47.150Z,990.68
2017-01-13T23:08:13.633Z,990.64
2017-01-13T23:08:35.453Z,990.60
2017-01-13T23:09:02.011Z,990.72
2017-01-13T23:09:23.698Z,990.74
2017-01-13T23:09:45.488Z,990.67
2017-01-13T23:10:11.964Z,990.75
2017-01-13T23:10:33.757Z,990.67
2017-01-13T23:11:00.338Z,990.59
2017-01-13T23:11:22.142Z,990.64
2017-01-13T23:11:43.855Z,990.72
2017-01-13T23:12:10.332Z,990.61
2017-01-13T23:12:32.039Z,990.64
2017-01-13T23:12:53.741Z,990.69
2017-01-13T23:13:15.434Z,990.75
2017-01-13T23:13:37.158Z,990.78
2017-01-13T23:13:58.948Z,990.75
2017-01-13T23:14:20.669Z,990.70
2017-01-13T23:14:42.462Z,990.76
2017-01-13T23:15:09.072Z,990.71
2017-01-13T23:15:30.783Z,990.76
2017-01-13T23:15:57.351Z,990.79
2017-01-13T23:16:19.146Z,990.64
2017-01-13T23:16:40.970Z,990.61
2017-01-13T23:17:02.668Z,990.72
2017-01-13T23:17:24.370Z,990.64
2017-01-13T23:17:46.160Z,990.64
2017-01-13T23:18:12.749Z,990.66
2017-01-13T23:18:34.630Z,990.73
2017-01-13T23:19:37.703Z,990.76
2017-01-13T23:19:59.418Z,990.76
2017-01-13T23:20:52.390Z,990.70
2017-01-13T23:21:14.095Z,990.78
2017-01-13T23:22:07.084Z,990.73
2017-01-13T23:23:00.068Z,990.77
2017-01-13T23:23:26.569Z,990.82
2017-01-13T23:23:48.298Z,990.78
2017-01-13T23:24:14.785Z,990.78
2017-01-13T23:24:36.578Z,990.68
2017-01-13T23:25:03.161Z,990.69
2017-01-13T23:25:24.892Z,990.66
2017-01-13T23:25:51.476Z,990.66
2017-01-13T23:26:13.191Z,990.65
2017-01-13T23:26:39.788Z,990.62
2017-01-13T23:27:43.004Z,990.63
2017-01-13T23:28:05.779Z,990.64
2017-01-13T23:28:32.278Z,990.62
2017-01-13T23:28:54.000Z,990.75
2017-01-13T23:29:15.692Z,990.79
2017-01-13T23:29:42.250Z,990.73
2017-01-13T23:30:04.028Z,990.76
2017-01-13T23:30:30.596Z,990.78
2017-01-13T23:30:52.291Z,990.78
2017-01-13T23:31:13.998Z,990.71
2017-01-13T23:31:35.703Z,990.83
2017-01-13T23:31:57.497Z,990.71
2017-01-13T23:32:19.196Z,990.79
2017-01-13T23:33:12.151Z,990.71
2017-01-13T23:34:05.229Z,990.61
2017-01-13T23:34:26.934Z,990.63
2017-01-13T23:34:53.507Z,990.65
2017-01-13T23:35:15.196Z,990.73
2017-01-13T23:36:08.249Z,990.74
2017-01-13T23:37:11.338Z,990.78
2017-01-13T23:37:33.047Z,990.66
2017-01-13T23:37:54.872Z,990.65
2017-01-13T23:38:16.583Z,990.72
2017-01-13T23:38:38.276Z,990.63
2017-01-13T23:38:59.966Z,990.62
2017-01-13T23:39:21.692Z,990.74
2017-01-13T23:39:43.385Z,990.75
2017-01-13T23:40:46.485Z,990.64
2017-01-13T23:41:08.189Z,990.69
2017-01-13T23:41:29.892Z,990.66
2017-01-13T23:41:51.596Z,990.65
2017-01-13T23:42:13.472Z,990.65
2017-01-13T23:42:35.265Z,990.65
2017-01-13T23:43:01.837Z,990.56
2017-01-13T23:43:23.536Z,990.66
2017-01-13T23:43:45.245Z,990.69
2017-01-13T23:44:06.934Z,990.68
2017-01-13T23:44:28.652Z,990.63
2017-01-13T23:44:50.351Z,990.56
2017-01-13T23:45:12.057Z,990.69
2017-01-13T23:45:33.836Z,990.60
2017-01-13T23:45:55.633Z,990.73
2017-01-13T23:46:17.338Z,990.65
2017-01-13T23:46:39.114Z,990.69
2017-01-13T23:47:00.827Z,990.74
2017-01-13T23:48:03.994Z,990.67
2017-01-13T23:48:25.796Z,990.58
2017-01-13T23:48:47.418Z,990.61
2017-01-13T23:49:13.891Z,990.64
2017-01-13T23:49:35.620Z,990.89
2017-01-13T23:49:57.324Z,990.73
2017-01-13T23:50:19.031Z,990.66
2017-01-13T23:50:40.727Z,990.66
2017-01-13T23:51:02.444Z,990.69
2017-01-13T23:51:28.913Z,990.71
2017-01-13T23:51:50.603Z,990.71
2017-01-13T23:52:17.082Z,990.81
2017-01-13T23:52:38.778Z,990.73
2017-01-13T23:53:00.483Z,990.70
2017-01-13T23:53:22.188Z,990.75
2017-01-13T23:53:43.887Z,990.83
2017-01-13T23:54:05.585Z,990.75
2017-01-13T23:54:27.292Z,990.74
2017-01-13T23:54:49.011Z,990.84
2017-01-13T23:55:15.488Z,990.77
2017-01-13T23:55:37.187Z,990.84
2017-01-13T23:55:58.903Z,990.77
2017-01-13T23:56:25.383Z,990.69
2017-01-13T23:56:47.085Z,990.83
2017-01-13T23:57:13.620Z,990.79
2017-01-13T23:57:35.337Z,990.73
2017-01-13T23:57:57.037Z,990.67
2017-01-13T23:58:18.737Z,990.61
2017-01-13T23:58:40.429Z,990.75
2017-01-13T23:59:02.122Z,990.65
2017-01-13T23:59:55.089Z,990.74
